• Join FlightAware (Why Join?)
  • Login
  • US Flag 
10:22PM EDT


 

Airport Tracker/Info


-or-


 

Live Flight TrackerFlight Track Log ✈ UPS104 ✈ 21-Aug-2013 ✈ KRFD - PANC

Flight Track Log - Related Links

Times and Time Zones

All times are in EDT time to prevent confusion due to time zone crossing. See the UPS104 flight status page for this flight to view local times or setup timezone preferences in your user account.

Time Position Orientation Groundspeed Altitude Reporting Facility
EDT Latitude Longitude Course Direction KTS MPH feet Rate Location/Type
03:48AM 42.1900 -89.1200 246° West 171 197 1,200  Level FlightAware
03:48AM 42.1870 -89.1310 250° West 160 184 2,000 3,300 Climbing FlightAware
03:48AM 42.1870 -89.1380 270° West 172 198 2,200 840 Climbing FlightAware
03:49AM 42.1960 -89.1610 298° West 234 269 2,400 960 Climbing FlightAware
03:49AM 42.2060 -89.1670 336° Northwest 251 289 2,700 2,520 Climbing FlightAware
03:49AM 42.2130 -89.1680 354° North 258 297 3,000 2,820 Climbing FlightAware
03:49AM 42.2460 -89.1590 11° North 266 306 4,400 2,640 Climbing FlightAware
03:50AM 42.2730 -89.1520 11° North 281 323 5,200 3,000 Climbing FlightAware
03:50AM 42.2990 -89.1470 North 277 319 6,400 3,180 Climbing FlightAware
03:50AM 42.3230 -89.1440 North 283 326 7,300 2,880 Climbing FlightAware
03:51AM 42.3440 -89.1400 North 285 328 8,100 3,060 Climbing FlightAware
03:51AM 42.3720 -89.1360 North 287 330 9,200 2,460 Climbing FlightAware
03:52AM 42.4190 -89.1280 North 307 353 10,400 1,560 Climbing FlightAware
03:52AM 42.4820 -89.1350 355° North 354 407 11,200 1,500 Climbing FlightAware
03:53AM 42.5370 -89.1710 334° Northwest 381 438 12,400 1,920 Climbing FlightAware
03:54AM 42.5990 -89.2090 336° Northwest 410 472 13,600 2,580 Climbing FlightAware
03:54AM 42.6600 -89.2480 335° Northwest 414 476 15,500 3,000 Climbing FlightAware
03:55AM 42.7180 -89.2860 334° Northwest 420 483 17,000 2,280 Climbing FlightAware
03:55AM 42.7830 -89.3300 334° Northwest 439 505 18,200 2,280 Climbing FlightAware
03:56AM 42.8490 -89.3750 333° Northwest 444 511 19,800 2,340 Climbing FlightAware
03:56AM 42.9100 -89.4150 334° Northwest 453 521 20,900 2,160 Climbing FlightAware
03:57AM 42.9790 -89.4600 334° Northwest 461 531 22,300 2,280 Climbing FlightAware
03:58AM 43.0470 -89.5060 334° Northwest 463 533 23,700 2,040 Climbing FlightAware
03:58AM 43.1180 -89.5530 334° Northwest 473 544 24,800 1,800 Climbing FlightAware
03:59AM 43.1810 -89.5960 334° Northwest 478 550 25,800 1,020 Climbing FlightAware
03:59AM 43.2530 -89.6440 334° Northwest 481 554 26,000 120 Climbing FlightAware
04:00AM 43.3230 -89.6910 334° Northwest 479 551 26,000 420 Level FlightAware
04:00AM 43.3890 -89.7350 334° Northwest 494 568 26,500 1,500 Climbing FlightAware
04:01AM 43.4560 -89.7800 334° Northwest 494 568 27,600 1,980 Climbing FlightAware
04:02AM 43.5290 -89.8300 334° Northwest 487 560 28,900 2,040 Climbing FlightAware
04:02AM 43.6070 -89.8840 333° Northwest 485 558 30,200 1,860 Climbing FlightAware
04:03AM 43.6790 -89.9330 334° Northwest 482 555 31,200 1,560 Climbing FlightAware
04:03AM 43.7450 -89.9770 334° Northwest 482 555 32,000 660 Climbing FlightAware
04:04AM 43.8170 -90.0270 333° Northwest 481 554 32,000  Level FlightAware
04:05AM 43.8860 -90.0740 334° Northwest 478 550 32,000  Level FlightAware
04:05AM 43.9580 -90.1240 333° Northwest 476 548 32,000  Level FlightAware
04:06AM 44.0220 -90.1680 334° Northwest 478 550 32,000  Level FlightAware
04:06AM 44.0930 -90.2180 333° Northwest 480 552 32,000  Level FlightAware
04:07AM 44.1620 -90.2650 334° Northwest 482 555 32,000  Level FlightAware
04:08AM 44.2350 -90.3160 333° Northwest 483 556 32,000  Level FlightAware
04:08AM 44.2990 -90.3610 333° Northwest 483 556 32,000  Level FlightAware
04:09AM 44.3710 -90.4110 334° Northwest 482 555 32,000  Level FlightAware
04:09AM 44.4470 -90.4650 333° Northwest 481 554 32,000  Level FlightAware
04:10AM 44.5200 -90.5170 333° Northwest 482 555 32,000  Level FlightAware
04:10AM 44.5820 -90.5600 334° Northwest 482 555 32,000  Level FlightAware
04:11AM 44.6550 -90.6110 334° Northwest 480 552 32,000  Level FlightAware
04:12AM 44.7260 -90.6630 333° Northwest 479 551 32,000  Level FlightAware
04:12AM 44.7900 -90.7080 333° Northwest 478 550 32,000  Level FlightAware
04:13AM 44.8600 -90.7570 334° Northwest 478 550 32,000  Level FlightAware
04:13AM 44.9310 -90.8080 333° Northwest 478 550 32,000  Level FlightAware
04:14AM 45.0020 -90.8590 333° Northwest 478 550 32,000  Level FlightAware
04:14AM 45.0660 -90.9050 333° Northwest 478 550 32,000  Level FlightAware
04:15AM 45.1370 -90.9570 333° Northwest 478 550 32,000  Level FlightAware
04:16AM 45.2000 -91.0030 333° Northwest 478 550 32,000  Level FlightAware
04:16AM 45.2870 -91.0660 333° Northwest 477 549 32,000  Level FlightAware
04:17AM 45.3580 -91.1170 333° Northwest 474 545 32,000  Level FlightAware
04:18AM 45.4290 -91.1690 333° Northwest 474 545 32,000  Level FlightAware
04:18AM 45.4940 -91.2170 333° Northwest 474 545 32,000  Level FlightAware
04:19AM 45.5570 -91.2630 333° Northwest 476 548 32,000  Level FlightAware
04:19AM 45.6310 -91.3180 333° Northwest 477 549 32,000  Level FlightAware
04:20AM 45.7020 -91.3700 333° Northwest 477 549 32,000  Level FlightAware
04:20AM 45.7650 -91.4160 333° Northwest 476 548 32,000  Level FlightAware
04:21AM 45.8340 -91.4670 333° Northwest 477 549 32,000  Level FlightAware
04:22AM 45.9080 -91.5160 335° Northwest 479 551 32,000  Level FlightAware
04:22AM 45.9790 -91.5270 354° North 484 557 32,000  Level FlightAware
04:23AM 46.0640 -91.5300 359° North 484 557 32,000  Level FlightAware
04:23AM 46.1400 -91.5320 359° North 483 556 32,000  Level FlightAware
04:24AM 46.2230 -91.5380 357° North 482 555 32,000  Level FlightAware
04:25AM 46.2960 -91.5470 355° North 482 555 32,000  Level FlightAware
04:25AM 46.3740 -91.5570 355° North 482 555 32,000 660 Level FlightAware
04:26AM 46.4550 -91.5670 355° North 476 548 32,800 1,320 Climbing FlightAware
04:26AM 46.5220 -91.5760 355° North 475 547 33,500 1,020 Climbing FlightAware
04:27AM 46.6050 -91.5900 353° North 475 547 34,000 420 Climbing FlightAware
04:27AM 46.6750 -91.5990 355° North 467 537 34,000  Level FlightAware
04:28AM 46.7540 -91.6100 355° North 462 532 34,000  Level FlightAware
04:29AM 46.8280 -91.6240 353° North 462 532 34,000  Level FlightAware
04:29AM 46.9050 -91.6390 352° North 463 533 34,000  Level FlightAware
04:30AM 46.9740 -91.6510 353° North 464 534 34,000  Level FlightAware
04:30AM 47.0510 -91.6650 353° North 464 534 34,000  Level FlightAware
04:31AM 47.1270 -91.6790 353° North 465 535 34,000  Level FlightAware
04:32AM 47.2040 -91.6940 352° North 467 537 34,000  Level FlightAware
04:32AM 47.2810 -91.7110 351° North 467 537 34,000  Level FlightAware
04:33AM 47.3490 -91.7290 350° North 470 541 34,000  Level FlightAware
04:33AM 47.4270 -91.7520 349° North 469 540 34,000  Level FlightAware
04:34AM 47.5050 -91.7810 346° North 471 542 34,000  Level FlightAware
04:34AM 47.5740 -91.8050 347° North 470 541 34,000  Level FlightAware
04:35AM 47.6500 -91.8310 347° North 470 541 34,000  Level FlightAware
04:36AM 47.7280 -91.8560 348° North 471 542 34,000  Level FlightAware
04:36AM 47.7930 -91.8800 346° North 469 540 34,000  Level FlightAware
04:37AM 47.8690 -91.9180 341° North 472 543 34,000  Level FlightAware
04:37AM 47.9320 -91.9610 335° Northwest 468 539 34,000  Level FlightAware
04:38AM 47.9990 -92.0320 325° Northwest 464 534 34,000  Level FlightAware
04:39AM 48.0580 -92.1060 320° Northwest 457 526 34,000  Level FlightAware
04:39AM 48.1140 -92.1810 318° Northwest 446 513 34,000  Level FlightAware
04:40AM 48.1640 -92.2470 319° Northwest 454 522 34,000  Level FlightAware
04:40AM 48.2190 -92.3200 319° Northwest 459 528 34,000  Level FlightAware
04:41AM 48.2710 -92.3900 318° Northwest 457 526 34,000  Level FlightAware
04:41AM 48.3260 -92.4630 319° Northwest 451 519 34,000  Level FlightAware
04:42AM 48.3840 -92.5400 319° Northwest 453 521 34,000  Level FlightAware
04:43AM 48.4530 -92.6330 318° Northwest 455 524 34,000  Level FlightAware
04:43AM 48.5010 -92.6980 318° Northwest 455 524 34,000  Level FlightAware
04:44AM 48.5940 -92.8230 318° Northwest 461 531 34,000  Level FlightAware
04:45AM 48.6440 -92.8910 318° Northwest 461 531 34,000  Level FlightAware
04:46AM 48.6920 -92.9570 318° Northwest 461 531 34,000  Level FlightAware
04:46AM 48.7410 -93.0230 318° Northwest 461 531 34,000  Level FlightAware
04:47AM 48.7890 -93.0900 317° Northwest 461 531 34,000  Level FlightAware
04:47AM 48.8380 -93.1560 318° Northwest 461 531 34,000  Level FlightAware
04:48AM 48.8860 -93.2220 318° Northwest 461 531 34,000  Level FlightAware
04:49AM 48.9350 -93.2890 318° Northwest 461 531 34,000  Level FlightAware
04:49AM 48.9830 -93.3550 318° Northwest 461 531 34,000  Level FlightAware
04:50AM 49.0320 -93.4220 318° Northwest 461 531 34,000  Level FlightAware
04:50AM 49.0800 -93.4880 318° Northwest 461 531 34,000  Level FlightAware
04:51AM 49.1290 -93.5550 318° Northwest 461 531 34,000  Level FlightAware
04:52AM 49.1780 -93.6240 317° Northwest 461 531 34,000  Level FlightAware
04:52AM 49.2270 -93.6910 318° Northwest 461 531 34,000  Level FlightAware
04:54AM 49.3560 -93.8690 318° Northwest 461 531 34,000  Level FlightAware
04:54AM 49.5500 -94.1333 318° Northwest 460 529 34,000  Level Winnipeg Center
04:55AM 49.6333 -94.2833 311° West 460 529 34,000  Level Winnipeg Center
04:56AM 49.7333 -94.4000 323° Northwest 460 529 34,000  Level Winnipeg Center
04:57AM 49.8167 -94.5333 314° West 450 518 34,000  Level Winnipeg Center
04:58AM 49.9167 -94.6500 323° Northwest 450 518 34,000  Level Winnipeg Center
04:59AM 50.0000 -94.7833 314° West 450 518 34,000  Level Winnipeg Center
05:00AM 50.1000 -94.9000 323° Northwest 440 506 34,000  Level Winnipeg Center
05:01AM 50.1833 -95.0333 314° West 440 506 34,000  Level Winnipeg Center
05:02AM 50.2833 -95.1833 316° Northwest 450 518 34,000  Level Winnipeg Center
05:03AM 50.3667 -95.3167 314° West 440 506 34,000  Level Winnipeg Center
05:04AM 50.4667 -95.4333 323° Northwest 450 518 34,000  Level Winnipeg Center
05:05AM 50.5500 -95.5667 315° West 440 506 34,000  Level Winnipeg Center
05:06AM 50.6333 -95.7000 315° West 440 506 34,000  Level Winnipeg Center
05:07AM 50.7500 -95.8333 324° Northwest 430 495 34,000  Level Winnipeg Center
05:08AM 50.8333 -95.9667 315° West 430 495 34,000  Level Winnipeg Center
05:09AM 50.9167 -96.0833 319° Northwest 430 495 34,000  Level Winnipeg Center
05:10AM 51.0000 -96.2167 315° West 430 495 34,000  Level Winnipeg Center
05:16AM 51.4810 -96.9370 315° West 425 489 34,000  Level FlightAware
05:16AM 51.5240 -97.0020 317° Northwest 425 489 34,000  Level FlightAware
05:17AM 51.5670 -97.0690 316° Northwest 425 489 34,000  Level FlightAware
05:18AM 51.6120 -97.1390 316° Northwest 425 489 34,000  Level FlightAware
05:18AM 51.6950 -97.2680 316° Northwest 420 483 34,000 -300 Level FlightAware
05:19AM 51.7400 -97.3390 316° Northwest 417 480 33,600 -360 Descending FlightAware
05:20AM 51.7810 -97.4070 314° West 417 480 33,600  Level FlightAware
05:20AM 51.8230 -97.4740 315° West 417 480 33,600  Level FlightAware
05:21AM 51.8650 -97.5420 315° West 417 480 33,600  Level FlightAware
05:21AM 51.9070 -97.6090 315° West 417 480 33,600 -1,320 Level FlightAware
05:22AM 51.9970 -97.7420 318° Northwest 419 482 32,000 -1,320 Descending FlightAware
05:23AM 52.0390 -97.8100 315° West 419 482 32,000  Level FlightAware
05:23AM 52.0810 -97.8790 315° West 419 482 32,000  Level FlightAware
05:24AM 52.1240 -97.9490 315° West 419 482 32,000  Level FlightAware
05:24AM 52.1660 -98.0170 315° West 419 482 32,000  Level FlightAware
05:25AM 52.2080 -98.0860 315° West 419 482 32,000  Level FlightAware
05:26AM 52.2500 -98.1540 315° West 419 482 32,000  Level FlightAware
05:26AM 52.2920 -98.2230 315° West 419 482 32,000  Level FlightAware
05:27AM 52.3350 -98.2930 315° West 419 482 32,000  Level FlightAware
05:27AM 52.3780 -98.3640 315° West 419 482 32,000  Level FlightAware
05:28AM 52.4200 -98.4330 315° West 419 482 32,000  Level FlightAware
05:29AM 52.4620 -98.5010 315° West 419 482 32,000  Level FlightAware
05:29AM 52.5040 -98.5700 315° West 419 482 32,000  Level FlightAware
05:30AM 52.5460 -98.6390 315° West 419 482 32,000  Level FlightAware
05:30AM 52.5870 -98.7080 314° West 419 482 32,000  Level FlightAware
05:31AM 52.6290 -98.7770 315° West 419 482 32,000  Level FlightAware
05:32AM 52.8500 -99.1333 315° West 430 495 32,000  Level Edmonton Center
05:33AM 52.9167 -99.2667 310° West 440 506 32,000  Level Edmonton Center
05:34AM 53.0167 -99.4167 318° Northwest 430 495 32,000  Level Edmonton Center
05:41AM 53.5680 -100.3690 318° Northwest 454 522 32,000  Level FlightAware
05:41AM 53.6220 -100.4660 313° West 456 525 32,000  Level FlightAware
05:42AM 53.6750 -100.5620 313° West 458 527 32,000  Level FlightAware
05:42AM 53.7290 -100.6580 314° West 460 529 32,000  Level FlightAware
05:43AM 53.7770 -100.7420 314° West 462 532 32,000  Level FlightAware
05:44AM 53.8260 -100.8290 314° West 463 533 32,000  Level FlightAware
05:44AM 53.8810 -100.9290 313° West 463 533 32,000  Level FlightAware
05:45AM 53.9280 -101.0170 312° West 465 535 32,000  Level FlightAware
05:45AM 53.9930 -101.1400 312° West 464 534 32,000  Level FlightAware
05:46AM 54.0340 -101.2280 308° West 464 534 32,000  Level FlightAware
05:47AM 54.0850 -101.3360 309° West 466 536 32,000  Level FlightAware
05:47AM 54.1270 -101.4250 309° West 466 536 32,000  Level FlightAware
05:48AM 54.1780 -101.5340 309° West 467 537 32,000  Level FlightAware
05:48AM 54.2170 -101.6210 307° West 466 536 32,000  Level FlightAware
05:49AM 54.2670 -101.7270 309° West 464 534 32,000  Level FlightAware
05:50AM 54.3260 -101.8570 308° West 465 535 32,000  Level FlightAware
05:50AM 54.3750 -101.9650 308° West 465 535 32,000  Level FlightAware
05:51AM 54.4170 -102.0540 309° West 465 535 32,000  Level FlightAware
05:51AM 54.4580 -102.1480 307° West 465 535 32,000  Level FlightAware
05:52AM 54.4990 -102.2410 307° West 465 535 32,000  Level FlightAware
05:53AM 54.5390 -102.3320 307° West 465 535 32,000  Level FlightAware
05:53AM 54.5990 -102.4620 309° West 470 541 32,000  Level FlightAware
05:54AM 54.6450 -102.5630 308° West 470 541 32,000  Level FlightAware
05:54AM 54.6860 -102.6530 308° West 470 541 32,000  Level FlightAware
05:55AM 54.7280 -102.7470 308° West 470 541 32,000  Level FlightAware
05:56AM 54.7690 -102.8370 308° West 470 541 32,000  Level FlightAware
05:56AM 54.8100 -102.9280 308° West 470 541 32,000  Level FlightAware
05:57AM 54.8520 -103.0220 308° West 470 541 32,000  Level FlightAware
05:57AM 54.8930 -103.1130 308° West 470 541 32,000  Level FlightAware
05:58AM 54.9340 -103.2040 308° West 470 541 32,000  Level FlightAware
05:59AM 54.9750 -103.2960 308° West 470 541 32,000  Level FlightAware
05:59AM 55.0160 -103.3870 308° West 470 541 32,000  Level FlightAware
06:00AM 55.0580 -103.4810 308° West 470 541 32,000  Level FlightAware
06:00AM 55.0990 -103.5730 308° West 470 541 32,000  Level FlightAware
06:01AM 55.1400 -103.6640 308° West 470 541 32,000  Level FlightAware
06:02AM 55.1830 -103.7610 308° West 470 541 32,000  Level FlightAware
06:02AM 55.2250 -103.8560 308° West 470 541 32,000  Level FlightAware
06:03AM 55.2660 -103.9480 308° West 470 541 32,000  Level FlightAware
06:03AM 55.4167 -104.3667 308° West 490 564 32,000  Level Edmonton Center
06:04AM 55.4833 -104.5667 301° West 490 564 32,000  Level Edmonton Center
06:05AM 55.5667 -104.7500 309° West 500 575 32,000  Level Edmonton Center
06:06AM 55.6500 -104.9667 304° West 500 575 32,000  Level Edmonton Center
06:07AM 55.7167 -105.2000 297° West 510 587 32,000  Level Edmonton Center
06:08AM 55.8000 -105.4167 304° West 510 587 32,000  Level Edmonton Center
06:09AM 55.8667 -105.6333 299° West 510 587 32,000  Level Edmonton Center
06:10AM 55.9333 -105.8333 301° West 510 587 32,000  Level Edmonton Center
06:11AM 56.0000 -106.0500 299° West 510 587 32,000  Level Edmonton Center
06:12AM 56.0667 -106.3000 296° West 510 587 32,000  Level Edmonton Center
06:13AM 56.1333 -106.5167 299° West 500 575 32,000  Level Edmonton Center
06:14AM 56.2000 -106.7333 299° West 490 564 32,000  Level Edmonton Center
06:15AM 56.2667 -106.9500 299° West 490 564 32,000  Level Edmonton Center
06:16AM 56.3333 -107.1667 299° West 490 564 32,000  Level Edmonton Center
06:17AM 56.4000 -107.4167 296° West 490 564 32,000  Level Edmonton Center
06:18AM 56.4667 -107.6333 299° West 490 564 32,000  Level Edmonton Center
06:19AM 56.5333 -107.8500 299° West 490 564 32,000  Level Edmonton Center
06:20AM 56.6000 -108.0667 299° West 490 564 32,000  Level Edmonton Center
06:21AM 56.6500 -108.3000 291° West 490 564 32,000  Level Edmonton Center
06:22AM 56.7167 -108.5167 299° West 490 564 32,000  Level Edmonton Center
06:23AM 56.7833 -108.7333 299° West 490 564 32,000  Level Edmonton Center
06:24AM 56.8333 -108.9667 291° West 490 564 32,000  Level Edmonton Center
06:25AM 56.9000 -109.1833 299° West 490 564 32,000  Level Edmonton Center
06:26AM 56.9667 -109.4167 298° West 490 564 32,000  Level Edmonton Center
06:27AM 57.0167 -109.6333 293° West 490 564 32,000  Level Edmonton Center
06:28AM 57.0833 -109.8667 298° West 480 552 32,000  Level Edmonton Center
06:29AM 57.1333 -110.0833 293° West 480 552 32,000  Level Edmonton Center
06:30AM 57.2000 -110.3167 298° West 480 552 32,000  Level Edmonton Center
06:31AM 57.2500 -110.5833 289° West 490 564 32,000  Level Edmonton Center
06:32AM 57.3167 -110.7833 302° West 490 564 32,000  Level Edmonton Center
06:33AM 57.3667 -111.0000 293° West 490 564 32,000  Level Edmonton Center
06:34AM 57.4333 -111.2333 298° West 480 552 32,000  Level Edmonton Center
06:35AM 57.4833 -111.5000 289° West 480 552 32,000  Level Edmonton Center
06:36AM 57.5333 -111.7000 295° West 480 552 32,000  Level Edmonton Center
06:37AM 57.6000 -111.9333 298° West 480 552 32,000  Level Edmonton Center
06:38AM 57.6500 -112.1667 292° West 480 552 32,000  Level Edmonton Center
06:39AM 57.7000 -112.4000 292° West 480 552 32,000  Level Edmonton Center
06:40AM 57.7500 -112.6333 292° West 480 552 32,000  Level Edmonton Center
06:41AM 57.8167 -112.8667 298° West 480 552 32,000  Level Edmonton Center
06:42AM 57.8667 -113.1167 291° West 480 552 32,000  Level Edmonton Center
06:43AM 57.9167 -113.3500 292° West 480 552 32,000  Level Edmonton Center
06:44AM 57.9667 -113.5833 292° West 480 552 32,000  Level Edmonton Center
06:45AM 58.0167 -113.8167 292° West 480 552 32,000  Level Edmonton Center
06:46AM 58.0667 -114.0667 291° West 480 552 32,000  Level Edmonton Center
06:47AM 58.1167 -114.3000 292° West 480 552 32,000  Level Edmonton Center
06:48AM 58.1667 -114.5333 292° West 480 552 32,000  Level Edmonton Center
06:49AM 58.2167 -114.7833 291° West 480 552 32,000  Level Edmonton Center
06:50AM 58.2667 -115.0000 294° West 470 541 32,000  Level Edmonton Center
06:51AM 58.3167 -115.2333 292° West 480 552 32,000  Level Edmonton Center
06:52AM 58.3667 -115.4833 291° West 480 552 32,000  Level Edmonton Center
06:53AM 58.4167 -115.7167 292° West 470 541 32,000  Level Edmonton Center
06:54AM 58.4667 -115.9667 291° West 470 541 32,000  Level Edmonton Center
06:55AM 58.5167 -116.2167 291° West 470 541 32,000  Level Edmonton Center
06:56AM 58.5667 -116.4333 294° West 470 541 32,000  Level Edmonton Center
06:59AM 58.6833 -117.1667 287° West 470 541 32,000  Level Edmonton Center
07:00AM 58.7333 -117.4000 293° West 480 552 32,000  Level Edmonton Center
07:01AM 58.7833 -117.6167 294° West 470 541 32,000  Level Edmonton Center
07:03AM 58.8287 -117.8942 288° West  Level FlightAware Approximate
07:03AM 58.8667 -118.1000 288° West 480 552 32,000  Level Edmonton Center
07:05AM 58.9108 -118.3790 287° West  Level FlightAware Approximate
07:12AM 59.1664 -120.0920 287° West  Level FlightAware Approximate
07:13AM 59.2010 -120.3387 285° West  Level FlightAware Approximate
07:14AM 59.2352 -120.5860 285° West  Level FlightAware Approximate
07:15AM 59.2689 -120.8338 285° West  Level FlightAware Approximate
07:16AM 59.3022 -121.0820 285° West  Level FlightAware Approximate
07:17AM 59.3350 -121.3307 285° West  Level FlightAware Approximate
07:18AM 59.3673 -121.5800 284° West  Level FlightAware Approximate
07:19AM 59.3991 -121.8296 284° West  Level FlightAware Approximate
07:20AM 59.4304 -122.0798 284° West  Level FlightAware Approximate
07:21AM 59.4613 -122.3304 284° West  Level FlightAware Approximate
07:22AM 59.4917 -122.5814 284° West  Level FlightAware Approximate
07:23AM 59.5216 -122.8329 283° West  Level FlightAware Approximate
07:24AM 59.5510 -123.0849 283° West  Level FlightAware Approximate
07:25AM 59.5799 -123.3373 283° West  Level FlightAware Approximate
07:26AM 59.6084 -123.5901 283° West  Level FlightAware Approximate
07:27AM 59.6363 -123.8434 282° West  Level FlightAware Approximate
07:28AM 59.6638 -124.0970 282° West  Level FlightAware Approximate
07:29AM 59.6908 -124.3511 282° West  Level FlightAware Approximate
07:30AM 59.7173 -124.6056 282° West  Level FlightAware Approximate
07:31AM 59.7433 -124.8604 282° West  Level FlightAware Approximate
07:32AM 59.7688 -125.1157 281° West  Level FlightAware Approximate
07:33AM 59.7938 -125.3714 281° West  Level FlightAware Approximate
07:34AM 59.8183 -125.6274 281° West  Level FlightAware Approximate
07:35AM 59.8423 -125.8838 281° West  Level FlightAware Approximate
07:36AM 59.8658 -126.1406 280° West  Level FlightAware Approximate
07:37AM 59.8956 -126.3943 283° West  Level FlightAware Approximate
07:38AM 59.9253 -126.6490 283° West  Level FlightAware Approximate
07:39AM 59.9545 -126.9041 283° West  Level FlightAware Approximate
07:40AM 59.9832 -127.1597 283° West  Level FlightAware Approximate
07:41AM 60.0113 -127.4157 283° West  Level FlightAware Approximate
07:42AM 60.0390 -127.6721 282° West  Level FlightAware Approximate
07:43AM 60.0662 -127.9290 282° West  Level FlightAware Approximate
07:44AM 60.0929 -128.1863 282° West  Level FlightAware Approximate
07:45AM 60.1191 -128.4440 282° West  Level FlightAware Approximate
07:46AM 60.1448 -128.7021 281° West  Level FlightAware Approximate
07:47AM 60.1700 -128.9606 281° West  Level FlightAware Approximate
07:48AM 60.1947 -129.2195 281° West  Level FlightAware Approximate
07:49AM 60.2190 -129.4787 281° West  Level FlightAware Approximate
07:50AM 60.2428 -129.7384 281° West  Level FlightAware Approximate
07:51AM 60.2660 -129.9984 280° West  Level FlightAware Approximate
07:52AM 60.2888 -130.2587 280° West  Level FlightAware Approximate
07:53AM 60.3110 -130.5195 280° West  Level FlightAware Approximate
07:54AM 60.3327 -130.7806 280° West  Level FlightAware Approximate
07:55AM 60.3540 -131.0420 279° West  Level FlightAware Approximate
07:56AM 60.3747 -131.3038 279° West  Level FlightAware Approximate
07:57AM 60.3949 -131.5659 279° West  Level FlightAware Approximate
07:58AM 60.4146 -131.8283 279° West  Level FlightAware Approximate
07:59AM 60.4337 -132.0910 279° West  Level FlightAware Approximate
08:00AM 60.4524 -132.3541 278° West  Level FlightAware Approximate
08:01AM 60.4705 -132.6174 278° West  Level FlightAware Approximate
08:02AM 60.4881 -132.8810 278° West  Level FlightAware Approximate
08:03AM 60.5052 -133.1449 278° West  Level FlightAware Approximate
08:04AM 60.5217 -133.4091 277° West  Level FlightAware Approximate
08:05AM 60.5378 -133.6736 277° West  Level FlightAware Approximate
08:06AM 60.5533 -133.9383 277° West  Level FlightAware Approximate
08:07AM 60.5683 -134.2032 277° West  Level FlightAware Approximate
08:08AM 60.5827 -134.4684 276° West  Level FlightAware Approximate
08:09AM 60.5967 -134.7339 276° West  Level FlightAware Approximate
08:10AM 60.6101 -134.9995 276° West  Level FlightAware Approximate
08:11AM 60.6271 -135.2663 279° West  Level FlightAware Approximate
08:12AM 60.6474 -135.5305 279° West  Level FlightAware Approximate
08:13AM 60.6673 -135.7949 279° West  Level FlightAware Approximate
08:14AM 60.6865 -136.0596 279° West  Level FlightAware Approximate
08:15AM 60.7053 -136.3247 278° West  Level FlightAware Approximate
08:16AM 60.7235 -136.5901 278° West  Level FlightAware Approximate
08:17AM 60.7411 -136.8525 278° West  Level FlightAware Approximate
08:18AM 60.7580 -137.1152 278° West  Level FlightAware Approximate
08:18AM 60.7167 -136.5667 276° West 420 483 32,000  Level Anchorage Center
08:19AM 60.7745 -137.3773 277° West  Level FlightAware Approximate
08:20AM 60.7904 -137.6396 277° West  Level FlightAware Approximate
08:20AM 60.7411 -136.8571 280° West  Level Estimated
08:21AM 60.8058 -137.9023 277° West  Level FlightAware Approximate
08:21AM 60.7667 -137.2000 280° West 440 506 32,000  Level Anchorage Center
08:22AM 60.8206 -138.1651 277° West  Level FlightAware Approximate
08:22AM 60.7833 -137.4500 278° West 430 495 32,000  Level Anchorage Center
08:23AM 60.8350 -138.4282 277° West  Level FlightAware Approximate
08:23AM 60.8000 -137.6833 278° West 430 495 32,000  Level Anchorage Center
08:24AM 60.8489 -138.6915 276° West  Level FlightAware Approximate
08:24AM 60.8000 -137.9333 270° West 430 495 32,000  Level Anchorage Center
08:25AM 60.8167 -138.1833 278° West 440 506 32,000  Level Anchorage Center
08:26AM 60.8333 -138.4333 278° West 430 495 32,000  Level Anchorage Center
08:27AM 60.8500 -138.6667 278° West 430 495 32,000  Level Anchorage Center
08:28AM 60.8667 -138.9167 278° West 430 495 32,000  Level Anchorage Center
08:29AM 60.8667 -139.1667 270° West 440 506 32,000  Level Anchorage Center
08:30AM 60.8833 -139.4167 278° West 440 506 32,000  Level Anchorage Center
08:31AM 60.9000 -139.6667 278° West 430 495 32,000  Level Anchorage Center
08:32AM 60.9167 -139.9167 278° West 440 506 32,000  Level Anchorage Center
08:33AM 60.9167 -140.1667 270° West 440 506 32,000  Level Anchorage Center
08:35AM 60.9333 -140.6667 274° West 450 518 32,000  Level Anchorage Center
08:36AM 60.9500 -140.9333 277° West 450 518 32,000  Level Anchorage Center
08:37AM 60.9500 -141.1833 270° West 440 506 32,000  Level Anchorage Center
08:38AM 60.9333 -141.4333 262° West 450 518 32,000  Level Anchorage Center
08:39AM 60.9500 -141.7000 277° West 450 518 32,000  Level Anchorage Center
08:40AM 60.9667 -141.9333 278° West 440 506 32,000  Level Anchorage Center
08:41AM 61.0000 -142.2000 285° West 450 518 32,000  Level Anchorage Center
08:42AM 61.0167 -142.4333 278° West 440 506 32,000  Level Anchorage Center
08:43AM 61.0333 -142.7000 277° West 440 506 32,000  Level Anchorage Center
08:44AM 61.0500 -142.9500 278° West 440 506 32,000  Level Anchorage Center
08:45AM 61.0667 -143.1833 278° West 440 506 32,000  Level Anchorage Center
08:46AM 61.0833 -143.4500 277° West 450 518 32,000  Level Anchorage Center
08:47AM 61.1000 -143.7000 278° West 440 506 32,000  Level Anchorage Center
08:48AM 61.1167 -143.9500 278° West 440 506 32,000  Level Anchorage Center
08:49AM 61.1333 -144.2000 278° West 440 506 32,000  Level Anchorage Center
08:50AM 61.1500 -144.4500 278° West 430 495 32,000  Level Anchorage Center
08:51AM 61.1667 -144.7000 278° West 440 506 32,000  Level Anchorage Center
08:52AM 61.1833 -144.9500 278° West 440 506 32,000  Level Anchorage Center
08:53AM 61.2000 -145.2000 278° West 440 506 32,000  Level Anchorage Center
08:59AM 61.2830 -146.7080 278° West 447 514 32,000  Level FlightAware
08:59AM 61.2890 -146.8400 275° West 448 516 32,000  Level FlightAware
09:00AM 61.2960 -146.9990 275° West 448 516 32,000  Level FlightAware
09:00AM 61.3030 -147.1580 275° West 448 516 32,000 -360 Level FlightAware
09:01AM 61.3100 -147.3080 276° West 438 504 31,600 -1,920 Descending FlightAware
09:02AM 61.3150 -147.4340 275° West 445 512 29,900 -3,360 Descending FlightAware
09:02AM 61.3210 -147.5970 274° West 448 516 27,800 -3,480 Descending FlightAware
09:03AM 61.3280 -147.7610 275° West 451 519 25,500 -3,300 Descending FlightAware
09:03AM 61.3330 -147.8970 274° West 441 507 24,000 -3,000 Descending FlightAware
09:04AM 61.3380 -148.0490 274° West 436 502 22,100 -3,060 Descending FlightAware
09:05AM 61.3430 -148.1980 274° West 428 493 20,300 -3,060 Descending FlightAware
09:05AM 61.3480 -148.3280 275° West 424 488 18,700 -3,060 Descending FlightAware
09:06AM 61.3530 -148.4820 274° West 419 482 16,800 -3,120 Descending FlightAware
09:06AM 61.3580 -148.6270 274° West 419 482 14,900 -3,000 Descending FlightAware
09:07AM 61.3620 -148.7590 274° West 414 476 13,400 -2,100 Descending FlightAware
09:08AM 61.3770 -148.8930 283° West 372 428 12,500 -1,620 Descending FlightAware
09:08AM 61.3920 -149.0060 286° West 328 377 11,500 -1,740 Descending FlightAware
09:09AM 61.4050 -149.0980 286° West 296 341 10,600 -1,200 Descending FlightAware
09:09AM 61.4200 -149.1920 288° West 277 319 10,200 -480 Descending FlightAware
09:10AM 61.4300 -149.2630 286° West 266 306 10,100 -600 Descending FlightAware
09:10AM 61.4320 -149.3030 276° West 261 300 9,800 -1,140 Descending FlightAware
09:10AM 61.4350 -149.3510 277° West 262 302 9,400 -1,200 Descending FlightAware
09:11AM 61.4380 -149.4040 277° West 265 305 9,000 -1,260 Descending FlightAware
09:11AM 61.4410 -149.4550 277° West 263 303 8,600 -1,200 Descending FlightAware
09:11AM 61.4440 -149.4950 279° West 261 300 8,300 -1,020 Descending FlightAware
09:12AM 61.4470 -149.5450 277° West 260 299 8,000 -1,200 Descending FlightAware
09:12AM 61.4500 -149.5990 277° West 257 296 7,500 -1,440 Descending FlightAware
09:12AM 61.4520 -149.6290 278° West 256 295 7,200 -1,200 Descending FlightAware
09:13AM 61.4560 -149.6870 278° West 252 290 6,800 -1,200 Descending FlightAware
09:13AM 61.4580 -149.7190 277° West 251 289 6,500 -1,500 Descending FlightAware
09:13AM 61.4610 -149.7640 278° West 250 288 6,000 -1,380 Descending FlightAware
09:13AM 61.4640 -149.8120 277° West 248 285 5,600 -1,260 Descending FlightAware
09:14AM 61.4590 -149.8630 258° West 242 278 5,100 -1,440 Descending FlightAware
09:14AM 61.4540 -149.9180 259° West 242 278 4,500 -1,440 Descending FlightAware
09:14AM 61.4490 -149.9630 257° West 234 269 4,100 -1,080 Descending FlightAware
09:15AM 61.4450 -150.0020 258° West 228 262 3,800 -960 Descending FlightAware
09:15AM 61.4400 -150.0570 259° West 215 247 3,400 -1,080 Descending FlightAware
09:15AM 61.4380 -150.0650 242° Southwest 210 242 3,300 -1,020 Descending FlightAware
09:15AM 61.4330 -150.0760 226° Southwest 199 229 3,200 -780 Descending FlightAware
09:16AM 61.4270 -150.0840 213° Southwest 190 219 3,100 -300 Descending FlightAware
09:16AM 61.4170 -150.0930 203° Southwest 181 208 3,100  Level FlightAware
09:16AM 61.4020 -150.1090 207° Southwest 181 208 3,100  Level FlightAware
09:16AM 61.3860 -150.1200 198° South 180 207 3,100  Level FlightAware
09:17AM 61.3610 -150.1050 164° South 179 206 3,100  Level FlightAware
09:17AM 61.3550 -150.1020 167° South 178 205 3,100  Level FlightAware
09:17AM 61.3390 -150.0940 167° South 167 192 3,100 -180 Level FlightAware
09:18AM 61.3250 -150.0850 163° South 160 184 3,000 -600 Descending FlightAware
09:18AM 61.3100 -150.0770 166° South 146 168 2,700 -900 Descending FlightAware
09:18AM 61.2970 -150.0690 164° South 141 162 2,400 -900 Descending FlightAware
09:19AM 61.2840 -150.0620 165° South 139 160 2,100 -780 Descending FlightAware
09:19AM 61.2720 -150.0550 164° South 139 160 1,900 -720 Descending FlightAware
09:20AM 61.2570 -150.0460 164° South 131 151 1,600 -900 Descending FlightAware
09:20AM 61.2460 -150.0400 165° South 125 144 1,300 -960 Descending FlightAware
09:20AM 61.2390 -150.0370 168° South 122 140 1,100 -660 Descending FlightAware
09:20AM 61.2260 -150.0290 163° South 117 135 900 -720 Descending FlightAware
09:21AM 61.2150 -150.0230 165° South 119 137 600 -780 Descending FlightAware
09:21AM 61.2040 -150.0170 165° South 122 140 400 -600 Descending FlightAware
09:21AM 61.1930 -150.0110 165° South 110 127 -1,200 Descending FlightAware